Time;durP1;ratioP1;P1;durP2;ratioP2;P2;SDS_P1;SDS_P2;PMS_P1;PMS_P2;Temp;Humidity;BMP_temperature;BMP_pressure;BME280_temperature;BME280_humidity;BME280_pressure;Samples;Min_cycle;Max_cycle;Signal;HPM_P1;HPM_P2
2023/04/01 00:02:06;;;;;;;3.90;2.25;;;;;;;9.20;80.58;98486.94;5070531;28;20044;-44
2023/04/01 00:04:33;;;;;;;6.35;1.70;;;;;;;9.20;80.08;98490.38;5079077;28;20036;-46
2023/04/01 00:07:00;;;;;;;5.18;2.88;;;;;;;9.20;80.24;98499.84;5076747;28;20040;-44
2023/04/01 00:09:26;;;;;;;6.57;3.90;;;;;;;9.20;80.43;98492.97;5074301;28;20441;-45
2023/04/01 00:11:55;;;;;;;5.53;2.42;;;;;;;9.20;80.65;98500.72;5072988;28;20127;-46
2023/04/01 00:14:22;;;;;;;5.90;2.65;;;;;;;9.20;80.38;98505.88;5077811;28;20097;-46
2023/04/01 00:16:48;;;;;;;6.38;2.25;;;;;;;9.19;79.97;98509.31;5076063;28;20072;-44
2023/04/01 00:19:15;;;;;;;3.17;1.95;;;;;;;9.18;80.72;98511.97;5071260;28;20106;-45
2023/04/01 00:21:41;;;;;;;3.00;1.83;;;;;;;9.18;80.66;98517.97;5075946;28;20199;-45
2023/04/01 00:24:08;;;;;;;4.78;1.98;;;;;;;9.14;80.80;98516.34;5072218;28;20766;-46
2023/04/01 00:26:35;;;;;;;3.65;1.75;;;;;;;9.15;80.43;98518.03;5073181;28;20072;-44
2023/04/01 00:29:02;;;;;;;3.17;1.55;;;;;;;9.10;80.79;98523.31;5074417;28;20101;-45
2023/04/01 00:31:29;;;;;;;2.45;1.25;;;;;;;9.02;80.66;98525.19;5068042;28;20074;-46
2023/04/01 00:33:57;;;;;;;3.70;1.27;;;;;;;9.03;80.63;98521.75;5072641;28;20044;-44
2023/04/01 00:36:24;;;;;;;3.22;1.77;;;;;;;9.02;80.02;98521.78;5074856;28;20420;-44
2023/04/01 00:38:51;;;;;;;2.80;1.35;;;;;;;9.03;80.29;98528.63;5074825;28;20083;-46
2023/04/01 00:41:19;;;;;;;4.82;2.05;;;;;;;9.04;80.31;98527.72;5059978;28;20063;-47
2023/04/01 00:43:48;;;;;;;4.15;1.27;;;;;;;9.05;80.77;98532.03;5077000;28;20132;-45
2023/04/01 00:46:15;;;;;;;2.88;1.60;;;;;;;8.94;80.21;98540.84;5055934;28;20048;-46
2023/04/01 00:48:48;;;;;;;5.47;2.53;;;;;;;8.99;80.07;98535.59;5074620;28;20132;-45
2023/04/01 00:51:23;;;;;;;5.63;2.22;;;;;;;8.86;80.60;98542.75;5078435;28;20040;-45
2023/04/01 00:53:53;;;;;;;5.43;2.45;;;;;;;8.93;80.40;98543.47;5075307;28;20158;-46
2023/04/01 00:56:26;;;;;;;5.20;1.58;;;;;;;8.87;80.51;98544.44;5072477;28;20110;-46
2023/04/01 00:59:01;;;;;;;3.25;1.80;;;;;;;8.79;80.72;98552.34;5054399;28;20052;-44
2023/04/01 01:01:29;;;;;;;5.35;2.03;;;;;;;8.79;80.44;98548.91;5069442;28;20101;-46
2023/04/01 01:03:56;;;;;;;4.40;2.50;;;;;;;8.81;80.57;98549.75;5072842;28;20044;-47
2023/04/01 01:16:59;;;;;;;8.27;3.90;;;;;;;8.72;80.53;98567.09;5000048;27;20403;-46
2023/04/01 01:25:12;;;;;;;7.95;4.00;;;;;;;8.58;81.14;98569.09;5074106;27;20391;-45
2023/04/01 01:27:43;;;;;;;5.95;3.50;;;;;;;8.57;81.28;98582.84;5031602;28;20049;-46
2023/04/01 01:30:28;;;;;;;7.65;3.85;;;;;;;8.49;81.00;98581.22;5018644;28;20049;-47
2023/04/01 01:38:16;;;;;;;9.65;2.97;;;;;;;8.52;80.78;98592.38;5021613;27;20403;-47
2023/04/01 01:40:47;;;;;;;4.30;2.38;;;;;;;8.43;80.56;98596.84;5034681;28;20083;-46
2023/04/01 01:43:19;;;;;;;9.13;3.85;;;;;;;8.43;81.37;98596.84;5032206;28;20045;-47
2023/04/01 01:45:51;;;;;;;8.65;3.38;;;;;;;8.45;80.71;98600.22;5037554;28;20110;-46
2023/04/01 01:48:19;;;;;;;7.13;2.72;;;;;;;8.51;81.03;98608.75;5034578;28;20049;-45
2023/04/01 01:50:48;;;;;;;8.13;3.47;;;;;;;8.51;80.29;98616.50;5019250;28;20104;-45
2023/04/01 01:53:15;;;;;;;8.02;3.10;;;;;;;8.49;80.16;98611.34;5015051;28;20050;-45
2023/04/01 01:55:44;;;;;;;12.55;3.83;;;;;;;8.49;80.31;98617.34;5032157;28;20139;-45
2023/04/01 02:01:02;;;;;;;9.10;3.58;;;;;;;8.46;80.42;98619.16;5029039;27;20408;-45
2023/04/01 02:03:34;;;;;;;9.38;3.63;;;;;;;8.46;80.45;98622.59;5006766;28;20068;-45
2023/04/01 02:06:04;;;;;;;10.00;3.58;;;;;;;8.45;81.08;98633.75;5020449;28;20173;-45
2023/04/01 02:08:38;;;;;;;9.25;3.58;;;;;;;8.46;80.50;98625.16;5019630;28;20501;-45
2023/04/01 02:11:08;;;;;;;11.70;3.63;;;;;;;8.45;80.67;98631.19;5018555;28;20457;-46
2023/04/01 02:16:29;;;;;;;10.23;3.95;;;;;;;8.44;80.28;98646.72;5080536;27;20113;-44
2023/04/01 02:18:58;;;;;;;11.23;4.85;;;;;;;8.43;80.95;98653.59;5062943;28;20041;-45
2023/04/01 02:21:29;;;;;;;11.30;4.03;;;;;;;8.45;80.99;98657.00;5078011;27;20044;-45
2023/04/01 02:23:58;;;;;;;6.10;2.90;;;;;;;8.43;80.87;98663.91;5083457;28;20114;-48
2023/04/01 02:26:26;;;;;;;7.82;3.03;;;;;;;8.41;80.80;98668.25;5063072;28;20052;-47
2023/04/01 02:28:55;;;;;;;4.78;2.53;;;;;;;8.31;81.07;98669.28;5059685;28;20071;-44
2023/04/01 02:31:23;;;;;;;5.95;2.42;;;;;;;8.33;80.36;98668.38;5060686;28;20064;-45
2023/04/01 02:33:50;;;;;;;6.72;2.08;;;;;;;8.31;80.54;98664.13;5054764;28;20140;-47
2023/04/01 02:36:17;;;;;;;6.65;2.72;;;;;;;8.33;80.49;98672.66;5056991;28;20084;-48
2023/04/01 02:38:46;;;;;;;6.20;2.50;;;;;;;8.31;80.31;98674.44;5054058;28;20072;-44
2023/04/01 02:41:13;;;;;;;6.90;2.15;;;;;;;8.32;80.53;98668.41;5050192;28;20057;-45
2023/04/01 02:43:39;;;;;;;5.13;2.03;;;;;;;8.29;80.66;98671.03;5056601;28;20144;-48
2023/04/01 02:46:06;;;;;;;5.90;2.28;;;;;;;8.30;80.03;98673.56;5055306;28;20072;-47
2023/04/01 02:48:33;;;;;;;5.20;2.00;;;;;;;8.25;80.25;98674.53;5059348;28;20048;-45
2023/04/01 02:51:00;;;;;;;5.05;2.00;;;;;;;8.22;80.09;98676.28;5054962;28;20044;-47
2023/04/01 02:53:26;;;;;;;5.18;2.47;;;;;;;8.22;80.44;98676.28;5054427;28;20095;-47
2023/04/01 02:55:53;;;;;;;5.40;2.47;;;;;;;8.25;80.09;98679.69;5061032;28;20037;-45
2023/04/01 02:58:19;;;;;;;6.15;2.17;;;;;;;8.27;80.40;98680.53;5058362;28;20135;-45
2023/04/01 03:00:46;;;;;;;5.88;2.58;;;;;;;8.25;80.44;98685.72;5060717;28;20076;-46
2023/04/01 03:03:13;;;;;;;8.57;2.85;;;;;;;8.23;80.49;98683.16;5059352;28;20076;-45
2023/04/01 03:05:40;;;;;;;7.63;2.88;;;;;;;8.19;80.00;98689.22;5088057;28;20040;-46
2023/04/01 03:08:07;;;;;;;8.00;2.50;;;;;;;8.13;79.89;98696.19;5076969;28;20053;-45
2023/04/01 03:10:34;;;;;;;7.88;2.70;;;;;;;8.12;79.59;98692.78;5063305;28;20134;-46
2023/04/01 03:13:01;;;;;;;6.55;1.90;;;;;;;8.08;79.58;98704.00;5058526;28;20064;-45
2023/04/01 03:15:27;;;;;;;3.53;2.60;;;;;;;8.06;80.38;98703.16;5054680;28;20374;-47
2023/04/01 03:17:54;;;;;;;10.30;3.28;;;;;;;8.05;80.72;98709.19;5059502;28;20075;-46
2023/04/01 03:20:21;;;;;;;7.20;2.13;;;;;;;7.98;79.45;98711.00;5058038;28;20135;-45
2023/04/01 03:22:47;;;;;;;6.65;3.47;;;;;;;7.99;80.21;98715.28;5053850;28;20600;-47
2023/04/01 03:25:14;;;;;;;6.18;2.65;;;;;;;7.95;79.69;98704.19;5068404;28;20048;-44
2023/04/01 03:27:41;;;;;;;6.38;2.40;;;;;;;7.93;80.44;98716.22;5068939;28;20162;-45
2023/04/01 03:30:09;;;;;;;6.82;3.22;;;;;;;7.94;79.94;98732.56;5065733;28;20067;-48
2023/04/01 03:32:35;;;;;;;8.43;2.30;;;;;;;7.97;80.37;98722.19;5071142;28;20055;-44
2023/04/01 03:35:02;;;;;;;9.90;2.58;;;;;;;7.95;80.53;98724.81;5040810;28;20068;-46
2023/04/01 03:37:29;;;;;;;7.85;2.25;;;;;;;7.96;79.79;98730.81;5044591;28;20081;-44
2023/04/01 03:39:56;;;;;;;4.22;2.00;;;;;;;7.93;79.26;98726.53;5050406;28;20103;-46
2023/04/01 03:42:22;;;;;;;6.63;2.05;;;;;;;7.93;79.76;98730.84;5059399;28;20045;-47
2023/04/01 03:44:49;;;;;;;7.90;1.98;;;;;;;7.93;79.61;98721.38;5046405;28;20080;-44
2023/04/01 03:47:16;;;;;;;5.57;3.22;;;;;;;7.95;79.81;98729.97;5047242;28;20432;-47
2023/04/01 03:49:42;;;;;;;4.90;2.05;;;;;;;7.97;80.06;98730.78;5063754;28;20122;-44
2023/04/01 03:52:11;;;;;;;8.05;4.22;;;;;;;7.97;79.49;98733.34;5068180;28;20458;-44
2023/04/01 03:54:38;;;;;;;6.55;3.28;;;;;;;7.96;79.63;98736.81;5057020;28;20408;-45
2023/04/01 03:57:05;;;;;;;8.00;2.28;;;;;;;7.95;79.71;98740.28;5051229;28;20053;-45
2023/04/01 03:59:32;;;;;;;5.13;2.20;;;;;;;7.96;79.29;98746.28;5051095;28;20182;-46
2023/04/01 04:01:58;;;;;;;5.10;1.90;;;;;;;7.99;80.25;98753.97;5074559;28;20048;-44
2023/04/01 04:04:25;;;;;;;6.47;1.85;;;;;;;7.98;79.67;98750.53;5067523;28;20106;-45
2023/04/01 04:06:53;;;;;;;3.10;1.92;;;;;;;7.95;79.28;98760.91;5053497;28;20092;-45
2023/04/01 04:09:20;;;;;;;7.68;2.40;;;;;;;7.95;79.23;98760.91;5042476;28;20041;-45
2023/04/01 04:11:47;;;;;;;4.35;2.35;;;;;;;7.92;79.87;98760.94;5047704;28;20099;-44
2023/04/01 04:14:13;;;;;;;3.95;2.08;;;;;;;7.93;79.85;98767.78;5047375;28;20104;-44
2023/04/01 04:16:40;;;;;;;2.17;1.00;;;;;;;7.91;79.52;98764.38;5059865;28;20044;-46
2023/04/01 04:19:06;;;;;;;3.38;1.48;;;;;;;7.91;79.46;98766.13;5066227;28;20101;-45
2023/04/01 04:21:33;;;;;;;2.25;1.02;;;;;;;7.90;79.38;98772.16;5067064;28;20048;-44
2023/04/01 04:24:00;;;;;;;3.92;1.75;;;;;;;7.89;79.17;98771.28;5063119;28;20075;-44
2023/04/01 04:26:27;;;;;;;8.82;2.45;;;;;;;7.89;79.55;98775.56;5064794;28;20045;-45
2023/04/01 04:28:55;;;;;;;6.60;1.92;;;;;;;7.87;79.74;98773.00;5058314;28;20074;-46
2023/04/01 04:31:23;;;;;;;5.63;2.78;;;;;;;7.83;79.95;98771.34;5057749;28;20246;-47
2023/04/01 04:33:51;;;;;;;6.40;2.08;;;;;;;7.81;79.99;98775.69;5061509;28;20041;-48
2023/04/01 04:36:18;;;;;;;6.35;2.55;;;;;;;7.81;80.13;98783.41;5062790;28;20079;-45
2023/04/01 04:38:46;;;;;;;8.48;3.17;;;;;;;7.80;79.17;98776.56;5062342;28;20079;-47
2023/04/01 04:41:14;;;;;;;8.05;2.95;;;;;;;7.83;80.01;98786.81;5058201;28;20076;-45
2023/04/01 04:43:42;;;;;;;6.47;2.78;;;;;;;7.81;79.26;98783.41;5066306;28;20055;-45
2023/04/01 04:46:09;;;;;;;3.35;1.52;;;;;;;7.77;79.87;98786.91;5064364;28;20060;-44
2023/04/01 04:48:36;;;;;;;6.43;2.20;;;;;;;7.74;79.41;98792.94;5063132;28;20053;-47
2023/04/01 04:51:03;;;;;;;5.90;2.35;;;;;;;7.76;80.15;98796.34;5055137;28;20136;-45
2023/04/01 04:53:30;;;;;;;6.05;1.88;;;;;;;7.76;80.04;98798.06;5047962;28;20072;-44
2023/04/01 04:55:56;;;;;;;5.35;2.17;;;;;;;7.76;79.37;98800.63;5044992;28;20452;-48
2023/04/01 04:58:23;;;;;;;5.82;2.45;;;;;;;7.79;79.79;98801.47;5062642;28;20060;-44
2023/04/01 05:00:49;;;;;;;5.90;2.60;;;;;;;7.80;79.48;98807.50;5072427;28;20049;-44
2023/04/01 05:03:16;;;;;;;6.22;2.30;;;;;;;7.81;79.66;98809.19;5065370;28;20052;-46
2023/04/01 05:05:52;;;;;;;10.60;2.97;;;;;;;7.78;79.53;98810.09;5065318;28;20036;-46
2023/04/01 05:08:19;;;;;;;6.93;3.35;;;;;;;7.79;79.41;98810.91;5041267;28;20475;-45
2023/04/01 05:10:46;;;;;;;9.75;2.92;;;;;;;7.76;78.96;98805.78;5059273;28;20102;-46
2023/04/01 05:13:13;;;;;;;7.53;2.80;;;;;;;7.75;79.33;98814.41;5064671;28;20067;-46
2023/04/01 05:15:39;;;;;;;8.10;2.72;;;;;;;7.75;79.07;98825.59;5062391;28;20060;-44
2023/04/01 05:18:06;;;;;;;7.88;2.50;;;;;;;7.76;80.12;98826.41;5051442;28;20045;-45
2023/04/01 05:20:33;;;;;;;6.43;2.35;;;;;;;7.76;79.36;98827.28;5037736;28;20137;-44
2023/04/01 05:23:00;;;;;;;12.10;3.47;;;;;;;7.76;79.57;98826.41;5059218;28;20445;-46
2023/04/01 05:25:27;;;;;;;6.40;2.72;;;;;;;7.77;79.29;98834.13;5061193;28;20493;-45
2023/04/01 05:27:53;;;;;;;5.32;2.22;;;;;;;7.75;79.37;98835.03;5065702;28;20098;-44
2023/04/01 05:30:20;;;;;;;6.90;3.63;;;;;;;7.75;80.05;98835.03;5057788;28;20464;-46
2023/04/01 05:32:47;;;;;;;5.47;2.80;;;;;;;7.76;79.50;98847.03;5042262;28;20036;-48
2023/04/01 05:35:14;;;;;;;5.72;2.10;;;;;;;7.75;79.79;98850.50;5040149;28;20500;-44
2023/04/01 05:37:40;;;;;;;5.25;2.50;;;;;;;7.75;80.04;98856.50;5036590;28;20805;-45
2023/04/01 05:40:08;;;;;;;3.60;1.83;;;;;;;7.72;79.71;98852.25;5037496;28;20055;-45
2023/04/01 05:42:35;;;;;;;6.18;2.13;;;;;;;7.74;78.76;98859.09;5040214;28;20135;-45
2023/04/01 05:45:04;;;;;;;4.35;1.60;;;;;;;7.72;79.78;98866.84;5037119;28;20060;-45
2023/04/01 05:47:31;;;;;;;4.15;2.63;;;;;;;7.69;78.63;98865.16;5041276;28;20402;-46
2023/04/01 05:49:57;;;;;;;5.43;1.75;;;;;;;7.69;79.66;98872.91;5035801;28;20053;-47
2023/04/01 05:52:24;;;;;;;8.20;1.98;;;;;;;7.69;79.59;98870.31;5035981;28;20076;-45
2023/04/01 05:54:51;;;;;;;3.97;1.60;;;;;;;7.67;79.07;98884.94;5039262;28;20064;-44
2023/04/01 05:57:17;;;;;;;5.20;1.88;;;;;;;7.65;79.53;98886.69;5042835;28;20044;-47
2023/04/01 05:59:45;;;;;;;4.60;1.35;;;;;;;7.69;78.68;98887.50;5037268;28;20049;-46
2023/04/01 06:02:11;;;;;;;4.18;1.55;;;;;;;7.67;79.54;98881.50;5042122;28;20067;-47
2023/04/01 06:04:40;;;;;;;2.60;1.15;;;;;;;7.66;79.12;98885.81;5050616;28;20080;-44
2023/04/01 06:07:16;;;;;;;3.80;1.75;;;;;;;7.66;78.82;98896.09;5050415;28;20041;-49
2023/04/01 06:09:44;;;;;;;3.70;2.38;;;;;;;7.68;79.42;98896.09;5037547;28;20640;-45
2023/04/01 06:20:42;;;;;;;6.28;1.30;;;;;;;7.64;79.20;98900.44;5026887;27;20398;-46
2023/04/01 06:26:20;;;;;;;6.82;3.17;;;;;;;7.62;79.49;98912.47;5006181;27;20403;-48
2023/04/01 06:37:37;;;;;;;4.00;1.67;;;;;;;7.74;79.07;98926.13;5084251;27;20407;-45
2023/04/01 06:51:12;;;;;;;2.45;1.20;;;;;;;7.79;77.98;98950.13;5093462;27;20397;-45
2023/04/01 06:53:55;;;;;;;5.70;2.80;;;;;;;7.80;79.30;98962.16;5040171;28;20490;-46
2023/04/01 06:56:28;;;;;;;4.38;1.20;;;;;;;7.81;78.33;98963.88;5034190;28;20455;-44
2023/04/01 06:59:17;;;;;;;2.45;2.15;;;;;;;7.80;78.69;98965.56;5031366;28;20037;-46
2023/04/01 07:07:01;;;;;;;4.53;3.22;;;;;;;7.74;77.85;98977.66;5056301;27;20380;-46
2023/04/01 07:09:36;;;;;;;3.72;1.08;;;;;;;7.69;78.41;98981.13;5014117;28;21227;-45
2023/04/01 07:12:30;;;;;;;4.57;2.80;;;;;;;7.67;78.57;98982.88;5022297;28;20701;-44
2023/04/01 07:15:01;;;;;;;5.13;3.22;;;;;;;7.65;77.59;98989.78;5015629;28;20174;-45
2023/04/01 07:17:32;;;;;;;3.38;2.65;;;;;;;7.61;78.38;98992.38;5022173;28;20545;-46
2023/04/01 07:20:10;;;;;;;3.35;2.90;;;;;;;7.59;77.92;98998.41;5028201;28;20060;-45
2023/04/01 07:22:44;;;;;;;4.13;2.30;;;;;;;7.57;78.05;99004.44;5028873;28;20059;-44
2023/04/01 07:27:50;;;;;;;3.03;1.58;;;;;;;7.52;78.75;99011.31;4971646;28;20412;-45
2023/04/01 07:30:20;;;;;;;2.63;1.05;;;;;;;7.57;77.93;99014.75;4915521;28;20159;-48
2023/04/01 07:38:18;;;;;;;3.53;1.35;;;;;;;7.63;78.55;99017.25;5048838;28;20399;-44
2023/04/01 07:46:13;;;;;;;3.40;1.30;;;;;;;7.71;77.90;99030.94;5030130;28;20749;-45
2023/04/01 07:54:13;;;;;;;2.85;1.38;;;;;;;7.74;77.40;99035.25;5062449;27;20390;-44
2023/04/01 08:16:06;;;;;;;3.33;2.53;;;;;;;7.78;78.39;99077.31;5039369;28;20404;-46
2023/04/01 08:18:52;;;;;;;2.22;2.00;;;;;;;7.81;77.85;99078.13;4981860;28;20058;-45
2023/04/01 08:21:23;;;;;;;4.70;2.92;;;;;;;7.84;78.71;99082.44;4983614;28;20070;-46
2023/04/01 08:23:56;;;;;;;2.75;1.05;;;;;;;7.88;77.34;99083.25;4982941;28;20422;-46
2023/04/01 08:26:36;;;;;;;3.65;3.03;;;;;;;7.92;78.08;99080.66;4958385;28;20055;-46
2023/04/01 08:29:13;;;;;;;4.68;3.08;;;;;;;8.00;77.93;99090.06;4954605;28;20082;-47
2023/04/01 08:34:24;;;;;;;3.10;1.33;;;;;;;8.11;77.61;99085.66;5012069;28;21040;-47
2023/04/01 08:37:00;;;;;;;4.03;1.73;;;;;;;8.13;77.24;99099.38;4995660;28;20050;-44
2023/04/01 08:39:36;;;;;;;3.05;1.50;;;;;;;8.14;77.87;99105.41;4993258;28;20046;-45
2023/04/01 08:42:31;;;;;;;3.72;2.03;;;;;;;8.16;77.24;99099.38;4990150;28;20066;-46
2023/04/01 08:45:18;;;;;;;4.28;1.77;;;;;;;8.17;77.30;99105.41;5007029;28;20442;-44
2023/04/01 08:48:24;;;;;;;4.78;1.80;;;;;;;8.21;76.84;99113.06;4992249;28;20778;-45
2023/04/01 08:56:57;;;;;;;5.97;3.22;;;;;;;8.34;76.64;99128.44;5031502;28;20041;-45
2023/04/01 09:05:39;;;;;;;8.60;1.27;;;;;;;8.35;77.04;99132.75;5000700;28;20407;-44
2023/04/01 09:08:46;;;;;;;3.72;1.45;;;;;;;8.40;76.39;99133.56;4968780;28;20590;-45
2023/04/01 09:11:28;;;;;;;2.15;1.00;;;;;;;8.47;77.06;99140.41;4965551;28;20407;-46
2023/04/01 09:19:47;;;;;;;1.92;0.98;;;;;;;8.69;76.86;99147.97;5024318;28;21345;-45
2023/04/01 09:27:41;;;;;;;5.68;3.22;;;;;;;8.85;76.47;99155.56;5047241;27;21281;-45
2023/04/01 09:30:32;;;;;;;4.53;1.27;;;;;;;8.85;76.49;99158.16;5019556;28;20077;-47
2023/04/01 09:33:39;;;;;;;3.50;0.90;;;;;;;8.86;76.29;99172.78;5015118;28;20537;-46
2023/04/01 09:36:38;;;;;;;8.32;1.88;;;;;;;8.82;75.14;99171.09;5016618;28;20591;-45
2023/04/01 09:42:26;;;;;;;3.47;1.58;;;;;;;8.70;75.24;99178.09;5049911;28;20413;-46
2023/04/01 09:48:08;;;;;;;6.53;2.72;;;;;;;8.58;74.85;99175.63;5137352;27;20388;-44
2023/04/01 09:53:54;;;;;;;4.60;1.30;;;;;;;8.48;74.65;99183.38;5061676;27;20403;-45
2023/04/01 09:59:58;;;;;;;2.17;1.25;;;;;;;8.44;74.85;99197.19;5024302;28;20817;-44
2023/04/01 10:16:14;;;;;;;4.07;1.75;;;;;;;8.40;74.52;99218.72;5068688;27;20404;-45
2023/04/01 10:32:55;;;;;;;5.07;1.38;;;;;;;8.47;74.24;99243.63;5101537;27;20397;-45
2023/04/01 10:58:26;;;;;;;4.20;1.60;;;;;;;8.79;73.55;99279.56;5043982;27;20404;-47
2023/04/01 11:01:22;;;;;;;2.88;1.58;;;;;;;8.82;73.96;99284.72;5005494;28;20111;-46
2023/04/01 11:04:28;;;;;;;4.45;2.03;;;;;;;8.84;73.93;99288.13;5018488;28;20391;-47
2023/04/01 11:18:21;;;;;;;4.82;2.83;;;;;;;9.05;73.08;99306.91;5114899;27;20399;-46
2023/04/01 11:21:22;;;;;;;3.35;2.92;;;;;;;9.10;73.44;99299.97;5057156;28;20072;-46
2023/04/01 11:24:11;;;;;;;3.42;3.03;;;;;;;9.09;72.94;99306.03;5065314;28;20132;-46
2023/04/01 11:32:07;;;;;;;4.63;2.10;;;;;;;9.10;73.34;99310.31;5020129;28;20402;-45
2023/04/01 11:43:00;;;;;;;6.25;3.60;;;;;;;9.17;72.58;99327.47;5028818;27;20406;-45
2023/04/01 11:45:57;;;;;;;6.25;2.70;;;;;;;9.23;72.50;99335.16;4997293;28;20066;-47
2023/04/01 11:54:03;;;;;;;5.00;1.52;;;;;;;9.20;71.90;99342.97;5043627;28;20390;-47
2023/04/01 11:59:44;;;;;;;6.13;3.78;;;;;;;9.23;71.78;99353.25;5027720;27;20402;-45
2023/04/01 12:08:02;;;;;;;1.77;1.20;;;;;;;9.38;71.39;99366.91;5020928;27;20386;-46
2023/04/01 12:18:53;;;;;;;4.28;2.33;;;;;;;9.45;71.88;99389.25;5048198;28;20398;-45
2023/04/01 12:24:35;;;;;;;2.20;1.20;;;;;;;9.45;71.13;99402.19;5070649;27;20386;-45
2023/04/01 12:35:25;;;;;;;4.13;1.63;;;;;;;9.39;71.19;99420.31;5018767;27;20394;-47
2023/04/01 12:58:00;;;;;;;3.00;1.40;;;;;;;9.34;70.96;99447.94;5022125;28;21293;-58
2023/04/01 13:00:44;;;;;;;4.85;3.40;;;;;;;9.39;70.86;99451.31;5013235;28;20054;-55
2023/04/01 13:06:22;;;;;;;5.00;1.83;;;;;;;9.38;71.47;99459.97;5084369;27;20394;-59
2023/04/01 13:09:24;;;;;;;5.32;2.20;;;;;;;9.36;70.00;99464.28;5051991;28;20080;-59
2023/04/01 13:15:07;;;;;;;4.85;2.10;;;;;;;9.32;69.82;99475.53;5055512;28;20409;-58
2023/04/01 13:28:38;;;;;;;4.95;3.38;;;;;;;9.81;68.48;99466.50;5021431;28;20413;-61
2023/04/01 13:33:50;;;;;;;4.72;2.70;;;;;;;9.52;69.64;99496.91;5087964;27;20773;-54
2023/04/01 13:39:49;;;;;;;5.22;2.53;;;;;;;9.41;69.69;99501.28;5083567;27;20750;-58
2023/04/01 13:42:24;;;;;;;;;;;;;;;9.38;69.75;99504.75;5010930;28;20057;-57
2023/04/01 13:45:00;;;;;;;6.15;3.10;;;;;;;9.46;69.98;99504.69;5018009;28;19969;-62
2023/04/01 13:56:33;;;;;;;4.82;1.95;;;;;;;9.37;68.66;99517.69;5065604;28;20416;-58
2023/04/01 13:59:30;;;;;;;2.25;1.13;;;;;;;9.37;69.17;99520.28;5032230;28;20791;-59
2023/04/01 14:02:27;;;;;;;4.63;2.30;;;;;;;9.35;68.13;99522.88;5047013;28;20500;-59
2023/04/01 14:13:17;;;;;;;3.67;1.63;;;;;;;9.34;68.82;99536.66;5028969;27;20779;-58
2023/04/01 14:18:41;;;;;;;4.93;1.50;;;;;;;9.44;68.86;99547.81;5029249;28;20410;-58
2023/04/01 14:21:19;;;;;;;4.00;1.83;;;;;;;9.50;68.75;99550.34;4990594;28;20421;-58
2023/04/01 14:23:59;;;;;;;3.28;2.97;;;;;;;9.52;68.95;99565.84;4985814;28;20493;-58
2023/04/01 14:27:05;;;;;;;4.18;3.35;;;;;;;9.56;68.99;99561.53;4987273;28;20057;-57
2023/04/01 14:35:02;;;;;;;4.15;2.75;;;;;;;9.61;67.68;99572.69;5045955;27;20401;-58
2023/04/01 14:46:33;;;;;;;4.22;1.00;;;;;;;9.66;67.21;99589.03;5017814;28;20399;-57
2023/04/01 14:49:22;;;;;;;1.10;0.85;;;;;;;9.76;67.14;99588.09;4985316;28;20046;-56
2023/04/01 14:51:51;;;;;;;3.10;1.42;;;;;;;9.86;67.55;99595.81;4990081;28;20061;-55
2023/04/01 14:54:29;;;;;;;3.45;1.27;;;;;;;9.93;67.69;99600.03;4986701;28;20046;-57
2023/04/01 15:03:13;;;;;;;4.53;1.80;;;;;;;9.77;66.13;99614.84;5036737;28;20381;-56
2023/04/01 15:19:51;;;;;;;2.78;0.95;;;;;;;9.70;65.90;99639.88;5051084;27;20415;-57
2023/04/01 15:25:18;;;;;;;3.63;1.00;;;;;;;9.66;66.43;99643.31;5048120;27;20896;-55
2023/04/01 15:30:30;;;;;;;1.95;1.20;;;;;;;9.67;65.72;99654.53;5071464;27;20401;-55
2023/04/01 15:33:37;;;;;;;1.55;0.75;;;;;;;9.67;65.89;99651.94;5016896;28;20077;-59
2023/04/01 15:42:02;;;;;;;2.15;1.95;;;;;;;9.91;66.31;99671.66;5010237;27;20421;-57
2023/04/01 15:47:33;;;;;;;3.25;0.77;;;;;;;9.91;65.80;99674.25;5061607;27;20387;-60
2023/04/01 15:52:49;;;;;;;3.42;1.10;;;;;;;9.95;66.04;99686.28;5045919;27;21247;-55
2023/04/01 15:55:25;;;;;;;2.47;1.15;;;;;;;9.95;66.24;99688.88;5032620;28;20065;-58
2023/04/01 15:58:20;;;;;;;2.83;1.55;;;;;;;9.93;65.55;99688.00;5027677;28;20108;-55
2023/04/01 16:17:34;;;;;;;3.75;2.72;;;;;;;9.84;66.38;99726.88;4995910;28;20405;-57
2023/04/01 16:22:58;;;;;;;1.95;1.23;;;;;;;9.92;65.82;99730.28;5038686;27;20758;-59
2023/04/01 16:39:26;;;;;;;1.30;0.60;;;;;;;9.97;64.84;99754.38;5084825;27;20378;-57
2023/04/01 16:44:53;;;;;;;2.13;1.00;;;;;;;9.89;65.35;99757.03;5053799;28;20736;-58
2023/04/01 16:47:31;;;;;;;1.30;0.60;;;;;;;9.84;65.76;99758.78;5002673;28;20100;-57
2023/04/01 16:50:13;;;;;;;2.25;0.70;;;;;;;9.83;65.45;99761.38;4997412;28;20104;-59
2023/04/01 16:55:22;;;;;;;2.30;1.38;;;;;;;9.85;66.09;99775.16;5021667;28;20415;-57
2023/04/01 16:57:52;;;;;;;2.53;0.82;;;;;;;9.82;66.06;99781.19;4998726;28;20497;-58
2023/04/01 17:03:20;;;;;;;3.50;2.15;;;;;;;9.81;66.33;99776.91;5046656;28;20409;-61
2023/04/01 17:08:58;;;;;;;2.65;0.95;;;;;;;9.76;65.95;99786.38;5036954;28;20417;-55
2023/04/01 17:11:31;;;;;;;4.15;1.17;;;;;;;9.77;66.16;99793.28;5014441;28;20092;-54
2023/04/01 17:14:13;;;;;;;1.80;0.70;;;;;;;9.79;66.46;99801.91;5011565;28;20115;-57
2023/04/01 17:22:27;;;;;;;2.83;2.38;;;;;;;9.64;66.15;99823.50;5054006;27;20408;-58
2023/04/01 17:25:29;;;;;;;3.03;2.50;;;;;;;9.61;66.38;99823.50;5038010;28;20087;-60
2023/04/01 17:30:42;;;;;;;2.13;1.20;;;;;;;9.61;66.44;99833.84;5019778;28;20407;-58
2023/04/01 17:36:24;;;;;;;3.97;1.27;;;;;;;9.51;65.82;99845.94;5054470;27;20416;-57
2023/04/01 17:47:27;;;;;;;2.67;2.47;;;;;;;9.46;67.18;99882.13;4999531;28;20396;-58
2023/04/01 17:50:14;;;;;;;2.35;2.10;;;;;;;9.34;67.19;99882.13;5013168;28;20064;-60
2023/04/01 17:58:29;;;;;;;2.58;1.27;;;;;;;9.34;67.56;99897.66;5015179;28;20407;-57
2023/04/01 18:01:24;;;;;;;2.70;1.50;;;;;;;9.36;67.75;99903.69;4983011;28;20604;-61
2023/04/01 18:09:40;;;;;;;2.58;1.35;;;;;;;9.25;69.21;99920.06;5088557;27;20402;-56
2023/04/01 18:21:01;;;;;;;2.53;1.55;;;;;;;9.06;70.24;99949.31;5114514;27;20407;-61
2023/04/01 18:23:39;;;;;;;3.22;2.55;;;;;;;9.05;70.78;99952.75;5078884;28;20513;-55
2023/04/01 18:26:21;;;;;;;9.80;3.15;;;;;;;9.08;70.64;99963.06;5079222;28;20048;-59
2023/04/01 18:28:56;;;;;;;4.50;2.13;;;;;;;9.05;71.29;99968.25;5073606;28;20084;-53
2023/04/01 18:31:31;;;;;;;3.42;1.60;;;;;;;9.02;71.03;99974.25;5077360;28;20481;-58
2023/04/01 18:36:56;;;;;;;4.05;3.35;;;;;;;8.95;71.46;99988.88;5078110;27;20412;-57
2023/04/01 18:39:35;;;;;;;1.83;1.58;;;;;;;8.96;71.56;99984.59;5066170;28;20494;-57
2023/04/01 18:42:17;;;;;;;2.25;1.80;;;;;;;8.94;71.76;99987.16;5074175;28;20044;-58
2023/04/01 18:47:45;;;;;;;4.35;2.05;;;;;;;9.14;71.75;100009.63;5039690;28;20978;-58
2023/04/01 18:50:43;;;;;;;3.55;1.17;;;;;;;8.90;72.53;100005.22;5037279;28;20579;-59
2023/04/01 18:55:55;;;;;;;4.55;0.80;;;;;;;8.78;73.41;100026.72;5062334;27;20398;-60
2023/04/01 18:58:49;;;;;;;2.38;2.00;;;;;;;8.71;73.68;100029.28;5037733;28;20608;-56
2023/04/01 19:01:56;;;;;;;1.85;1.50;;;;;;;8.67;73.78;100037.84;5032557;28;20065;-54
2023/04/01 19:04:31;;;;;;;3.95;2.33;;;;;;;8.66;74.63;100041.31;5024330;28;20552;-56
2023/04/01 19:07:01;;;;;;;3.85;3.50;;;;;;;8.61;74.98;100049.00;5030964;28;20103;-56
2023/04/01 19:17:59;;;;;;;4.10;0.95;;;;;;;8.51;75.66;100065.25;5060226;28;20410;-57
2023/04/01 19:20:41;;;;;;;2.28;1.00;;;;;;;8.46;75.46;100075.59;5003075;28;20054;-62
2023/04/01 19:23:46;;;;;;;2.88;1.40;;;;;;;8.43;75.40;100075.56;5036655;28;20129;-59
2023/04/01 19:26:23;;;;;;;3.63;2.05;;;;;;;8.45;75.47;100081.56;5025561;28;20136;-58
2023/04/01 19:31:44;;;;;;;4.70;2.30;;;;;;;8.82;75.12;100095.63;5039938;27;20412;-56
2023/04/01 19:34:51;;;;;;;2.97;2.67;;;;;;;8.55;75.55;100097.19;5020901;28;20070;-57
2023/04/01 19:37:29;;;;;;;2.20;1.27;;;;;;;8.51;76.19;100105.72;5043495;28;20096;-56
2023/04/01 19:42:57;;;;;;;2.00;1.23;;;;;;;8.43;76.96;100111.69;5068504;27;20396;-56
2023/04/01 19:51:06;;;;;;;3.20;1.48;;;;;;;8.40;76.22;100119.41;5090170;27;20386;-56
2023/04/01 19:54:12;;;;;;;3.63;1.45;;;;;;;8.35;76.94;100126.25;5038768;28;20496;-58
2023/04/01 19:56:47;;;;;;;4.18;1.35;;;;;;;8.37;76.83;100119.38;5051178;28;20512;-58
2023/04/01 20:02:23;;;;;;;3.35;2.42;;;;;;;8.27;77.01;100133.94;5022001;27;20405;-54
2023/04/01 20:04:56;;;;;;;3.30;2.47;;;;;;;8.26;76.95;100128.75;5016490;28;20133;-60
2023/04/01 20:07:31;;;;;;;3.33;2.28;;;;;;;8.21;77.27;100142.50;5019663;28;20119;-51
2023/04/01 20:15:44;;;;;;;3.35;2.70;;;;;;;8.25;77.50;100160.59;5025002;28;20407;-58
2023/04/01 20:20:56;;;;;;;2.63;1.50;;;;;;;8.22;76.84;100172.63;5041162;28;20924;-59
2023/04/01 20:26:11;;;;;;;2.47;1.15;;;;;;;8.15;77.47;100186.31;5069889;27;20798;-58